createdAt,value
2023-05-21T00:01:37.047Z,100.00
2023-05-21T00:04:05.471Z,100.00
2023-05-21T00:06:32.583Z,100.00
2023-05-21T00:08:58.981Z,100.00
2023-05-21T00:11:25.354Z,100.00
2023-05-21T00:13:51.758Z,100.00
2023-05-21T00:16:18.183Z,100.00
2023-05-21T00:18:44.567Z,100.00
2023-05-21T00:21:11.510Z,100.00
2023-05-21T00:23:47.461Z,100.00
2023-05-21T00:26:13.811Z,100.00
2023-05-21T00:28:40.148Z,100.00
2023-05-21T00:31:06.571Z,100.00
2023-05-21T00:33:33.334Z,100.00
2023-05-21T00:35:59.932Z,100.00
2023-05-21T00:38:27.200Z,100.00
2023-05-21T00:40:54.281Z,100.00
2023-05-21T00:43:25.371Z,100.00
2023-05-21T00:45:53.099Z,100.00
2023-05-21T00:48:20.287Z,100.00
2023-05-21T00:50:46.933Z,100.00
2023-05-21T00:53:14.689Z,100.00
2023-05-21T00:55:41.141Z,100.00
2023-05-21T00:58:08.415Z,100.00
2023-05-21T01:00:36.689Z,100.00
2023-05-21T01:03:03.842Z,100.00
2023-05-21T01:05:30.534Z,100.00
2023-05-21T01:07:58.002Z,100.00
2023-05-21T01:10:25.625Z,100.00
2023-05-21T01:12:52.621Z,100.00
2023-05-21T01:15:19.810Z,100.00
2023-05-21T01:17:48.060Z,100.00
2023-05-21T01:20:17.257Z,100.00
2023-05-21T01:22:51.240Z,100.00
2023-05-21T01:25:17.631Z,100.00
2023-05-21T01:27:44.033Z,100.00
2023-05-21T01:30:11.681Z,100.00
2023-05-21T01:32:44.783Z,100.00
2023-05-21T01:35:15.137Z,100.00
2023-05-21T01:37:47.282Z,100.00
2023-05-21T01:40:17.644Z,100.00
2023-05-21T01:42:45.249Z,100.00
2023-05-21T01:45:14.114Z,100.00
2023-05-21T01:47:41.588Z,100.00
2023-05-21T01:50:08.742Z,100.00
2023-05-21T01:52:35.785Z,100.00
2023-05-21T01:55:02.923Z,100.00
2023-05-21T01:57:29.948Z,100.00
2023-05-21T01:59:57.355Z,100.00
2023-05-21T02:02:23.691Z,100.00
2023-05-21T02:04:50.814Z,100.00
2023-05-21T02:07:17.664Z,100.00
2023-05-21T02:09:44.518Z,100.00
2023-05-21T02:12:10.824Z,100.00
2023-05-21T02:14:38.474Z,100.00
2023-05-21T02:17:05.258Z,100.00
2023-05-21T02:19:31.599Z,100.00
2023-05-21T02:21:57.992Z,100.00
2023-05-21T02:24:24.347Z,100.00
2023-05-21T02:26:51.613Z,100.00
2023-05-21T02:29:18.378Z,100.00
2023-05-21T02:31:45.451Z,100.00
2023-05-21T02:34:11.822Z,100.00
2023-05-21T02:36:40.757Z,100.00
2023-05-21T02:39:07.096Z,100.00
2023-05-21T02:41:33.469Z,100.00
2023-05-21T02:43:59.769Z,100.00
2023-05-21T02:46:26.230Z,100.00
2023-05-21T02:48:53.284Z,100.00
2023-05-21T02:51:19.708Z,100.00
2023-05-21T02:53:46.045Z,100.00
2023-05-21T02:56:12.381Z,100.00
2023-05-21T02:58:38.758Z,100.00
2023-05-21T03:01:05.234Z,100.00
2023-05-21T03:03:31.713Z,100.00
2023-05-21T03:05:58.824Z,100.00
2023-05-21T03:08:25.747Z,100.00
2023-05-21T03:10:52.080Z,100.00
2023-05-21T03:13:18.484Z,100.00
2023-05-21T03:15:45.860Z,100.00
2023-05-21T03:18:12.424Z,100.00
2023-05-21T03:20:42.912Z,100.00
2023-05-21T03:23:13.555Z,100.00
2023-05-21T03:25:41.948Z,100.00
2023-05-21T03:28:09.310Z,100.00
2023-05-21T03:30:36.266Z,100.00
2023-05-21T03:33:04.201Z,100.00
2023-05-21T03:35:30.554Z,100.00
2023-05-21T03:37:56.860Z,100.00
2023-05-21T03:40:24.012Z,100.00
2023-05-21T03:42:50.346Z,100.00
2023-05-21T03:45:16.672Z,100.00
2023-05-21T03:47:43.142Z,100.00
2023-05-21T03:50:10.391Z,100.00
2023-05-21T03:52:36.744Z,100.00
2023-05-21T03:55:03.364Z,100.00
2023-05-21T03:57:30.368Z,100.00
2023-05-21T03:59:58.186Z,100.00
2023-05-21T04:02:25.851Z,100.00
2023-05-21T04:04:53.039Z,100.00
2023-05-21T04:07:19.610Z,100.00
2023-05-21T04:09:45.927Z,100.00
2023-05-21T04:12:12.317Z,100.00
2023-05-21T04:14:39.307Z,100.00
2023-05-21T04:17:05.867Z,100.00
2023-05-21T04:19:32.665Z,100.00
2023-05-21T04:21:59.149Z,100.00
2023-05-21T04:24:25.508Z,100.00
2023-05-21T04:26:51.840Z,100.00
2023-05-21T04:29:20.337Z,100.00
2023-05-21T04:31:47.638Z,100.00
2023-05-21T04:34:17.192Z,100.00
2023-05-21T04:36:44.539Z,100.00
2023-05-21T04:39:11.312Z,100.00
2023-05-21T04:41:38.139Z,100.00
2023-05-21T04:44:05.057Z,100.00
2023-05-21T04:46:31.445Z,100.00
2023-05-21T04:49:02.130Z,100.00
2023-05-21T04:51:28.531Z,100.00
2023-05-21T04:53:55.363Z,100.00
2023-05-21T04:56:21.809Z,100.00
2023-05-21T04:58:48.698Z,100.00
2023-05-21T05:01:15.414Z,100.00
2023-05-21T05:03:41.867Z,100.00
2023-05-21T05:06:08.854Z,100.00
2023-05-21T05:08:35.261Z,100.00
2023-05-21T05:11:02.033Z,100.00
2023-05-21T05:13:28.409Z,100.00
2023-05-21T05:15:54.921Z,100.00
2023-05-21T05:18:21.249Z,100.00
2023-05-21T05:20:47.634Z,100.00
2023-05-21T05:23:14.869Z,100.00
2023-05-21T05:25:41.209Z,100.00
2023-05-21T05:28:07.541Z,100.00
2023-05-21T05:30:34.937Z,100.00
2023-05-21T05:33:01.330Z,100.00
2023-05-21T05:35:27.699Z,100.00
2023-05-21T05:37:54.052Z,100.00
2023-05-21T05:40:21.054Z,100.00
2023-05-21T05:42:48.666Z,100.00
2023-05-21T05:45:15.162Z,100.00
2023-05-21T05:47:41.541Z,100.00
2023-05-21T05:50:08.388Z,100.00
2023-05-21T05:52:34.779Z,100.00
2023-05-21T05:55:01.115Z,100.00
2023-05-21T05:57:28.119Z,100.00
2023-05-21T05:59:54.458Z,100.00
2023-05-21T06:02:20.898Z,100.00
2023-05-21T06:04:47.316Z,100.00
2023-05-21T06:07:13.666Z,100.00
2023-05-21T06:09:40.195Z,100.00
2023-05-21T06:12:07.249Z,100.00
2023-05-21T06:14:34.239Z,100.00
2023-05-21T06:17:00.578Z,100.00
2023-05-21T06:19:27.050Z,100.00
2023-05-21T06:21:53.447Z,100.00
2023-05-21T06:24:20.467Z,100.00
2023-05-21T06:26:46.802Z,100.00
2023-05-21T06:29:15.333Z,100.00
2023-05-21T06:31:42.578Z,100.00
2023-05-21T06:34:09.901Z,100.00
2023-05-21T06:36:36.658Z,100.00
2023-05-21T06:39:03.228Z,100.00
2023-05-21T06:41:29.586Z,100.00
2023-05-21T06:43:56.084Z,100.00
2023-05-21T06:46:22.569Z,100.00
2023-05-21T06:48:49.722Z,100.00
2023-05-21T06:51:16.100Z,100.00
2023-05-21T06:53:42.457Z,100.00
2023-05-21T06:56:08.799Z,100.00
2023-05-21T06:58:35.224Z,100.00
2023-05-21T07:01:01.828Z,100.00
2023-05-21T07:03:28.417Z,100.00
2023-05-21T07:05:56.914Z,100.00
2023-05-21T07:08:26.515Z,100.00
2023-05-21T07:10:52.915Z,100.00
2023-05-21T07:13:19.362Z,100.00
2023-05-21T07:15:45.785Z,100.00
2023-05-21T07:18:12.472Z,100.00
2023-05-21T07:20:38.904Z,100.00
2023-05-21T07:23:05.861Z,100.00
2023-05-21T07:25:32.262Z,100.00
2023-05-21T07:27:58.655Z,100.00
2023-05-21T07:30:25.137Z,100.00
2023-05-21T07:32:51.611Z,100.00
2023-05-21T07:35:18.652Z,100.00
2023-05-21T07:37:45.795Z,100.00
2023-05-21T07:40:13.535Z,100.00
2023-05-21T07:42:40.324Z,100.00
2023-05-21T07:45:07.694Z,100.00
2023-05-21T07:47:34.054Z,100.00
2023-05-21T07:50:00.442Z,100.00
2023-05-21T07:52:26.785Z,100.00
2023-05-21T07:54:53.185Z,100.00
2023-05-21T07:57:20.754Z,100.00
2023-05-21T07:59:47.103Z,100.00
2023-05-21T08:02:13.533Z,100.00
2023-05-21T08:04:41.314Z,100.00
2023-05-21T08:07:09.051Z,100.00
2023-05-21T08:09:35.922Z,100.00
2023-05-21T08:12:02.266Z,100.00
2023-05-21T08:14:29.255Z,100.00
2023-05-21T08:16:55.587Z,100.00
2023-05-21T08:19:22.106Z,100.00
2023-05-21T08:21:49.303Z,100.00
2023-05-21T08:24:17.287Z,100.00
2023-05-21T08:26:44.363Z,100.00
2023-05-21T08:29:10.841Z,100.00
2023-05-21T08:31:39.582Z,100.00
2023-05-21T08:34:05.970Z,100.00
2023-05-21T08:36:32.302Z,100.00
2023-05-21T08:38:58.645Z,100.00
2023-05-21T08:41:26.230Z,100.00
2023-05-21T08:43:56.133Z,100.00
2023-05-21T08:46:23.511Z,100.00
2023-05-21T08:48:54.107Z,100.00
2023-05-21T08:51:20.870Z,100.00
2023-05-21T08:53:48.871Z,100.00
2023-05-21T08:56:16.977Z,100.00
2023-05-21T08:58:45.592Z,100.00
2023-05-21T09:01:12.189Z,100.00
2023-05-21T09:03:43.051Z,100.00
2023-05-21T09:06:13.376Z,100.00
2023-05-21T09:08:44.432Z,100.00
2023-05-21T09:11:11.031Z,100.00
2023-05-21T09:13:39.120Z,100.00
2023-05-21T09:16:07.077Z,100.00
2023-05-21T09:18:33.455Z,100.00
2023-05-21T09:21:24.706Z,100.00
2023-05-21T09:23:54.640Z,100.00
2023-05-21T09:26:21.948Z,100.00
2023-05-21T09:28:48.306Z,100.00
2023-05-21T09:31:14.661Z,100.00
2023-05-21T09:33:46.305Z,100.00
2023-05-21T09:36:12.634Z,100.00
2023-05-21T09:38:39.725Z,100.00
2023-05-21T09:41:06.319Z,100.00
2023-05-21T09:43:32.686Z,100.00
2023-05-21T09:46:01.994Z,100.00
2023-05-21T09:48:36.499Z,95.11
2023-05-21T09:51:14.368Z,94.57
2023-05-21T09:53:48.546Z,100.00
2023-05-21T09:56:15.129Z,96.70
2023-05-21T09:58:41.719Z,88.35
2023-05-21T10:01:10.556Z,88.47
2023-05-21T10:03:39.610Z,82.22
2023-05-21T10:06:08.626Z,68.06
2023-05-21T10:08:36.303Z,73.09
2023-05-21T10:11:05.332Z,84.55
2023-05-21T10:13:35.533Z,81.88
2023-05-21T10:16:02.378Z,68.84
2023-05-21T10:18:30.399Z,76.78
2023-05-21T10:20:58.615Z,71.13
2023-05-21T10:23:26.792Z,67.70
2023-05-21T10:25:53.761Z,72.58
2023-05-21T10:28:22.273Z,58.86
2023-05-21T10:30:49.035Z,58.12
2023-05-21T10:33:16.382Z,63.52
2023-05-21T10:35:46.347Z,60.33
2023-05-21T10:38:14.029Z,58.23
2023-05-21T10:40:40.572Z,57.13
2023-05-21T10:43:40.695Z,64.98
2023-05-21T10:46:29.457Z,61.32
2023-05-21T10:49:07.033Z,68.23
2023-05-21T10:51:41.897Z,62.19
2023-05-21T10:54:39.024Z,63.46
2023-05-21T10:57:16.225Z,55.07
2023-05-21T10:59:45.423Z,54.16
2023-05-21T11:02:14.425Z,63.00
2023-05-21T11:04:43.537Z,58.26
2023-05-21T11:07:11.952Z,61.99
2023-05-21T11:09:38.348Z,61.81
2023-05-21T11:12:07.361Z,53.95
2023-05-21T11:14:36.700Z,61.18
2023-05-21T11:17:10.352Z,55.68
2023-05-21T11:19:38.694Z,43.00
2023-05-21T11:22:13.269Z,45.33
2023-05-21T11:24:41.054Z,46.23
2023-05-21T11:27:10.929Z,45.80
2023-05-21T11:29:40.036Z,48.87
2023-05-21T11:32:08.897Z,53.43
2023-05-21T11:34:40.187Z,44.33
2023-05-21T11:37:28.293Z,42.67
2023-05-21T11:39:55.893Z,49.20
2023-05-21T11:42:33.174Z,41.47
2023-05-21T11:45:00.764Z,40.32
2023-05-21T11:47:28.916Z,38.37
2023-05-21T11:49:56.145Z,44.61
2023-05-21T11:52:23.117Z,38.99
2023-05-21T11:54:53.386Z,38.90
2023-05-21T11:57:19.957Z,42.15
2023-05-21T11:59:46.822Z,36.61
2023-05-21T12:02:15.840Z,41.67
2023-05-21T12:04:43.173Z,35.69
2023-05-21T12:07:12.492Z,35.19
2023-05-21T12:09:39.448Z,38.21
2023-05-21T12:12:07.498Z,36.48
2023-05-21T12:14:41.092Z,35.72
2023-05-21T12:17:07.468Z,40.04
2023-05-21T12:19:34.207Z,42.48
2023-05-21T12:22:05.551Z,44.80
2023-05-21T12:24:32.502Z,43.02
2023-05-21T12:27:00.627Z,41.64
2023-05-21T12:29:27.634Z,42.08
2023-05-21T12:31:54.043Z,40.61
2023-05-21T12:34:40.138Z,40.57
2023-05-21T12:37:08.205Z,42.35
2023-05-21T12:39:41.131Z,40.35
2023-05-21T12:42:07.739Z,40.92
2023-05-21T12:44:36.617Z,39.37
2023-05-21T12:47:03.417Z,37.26
2023-05-21T12:49:34.571Z,40.20
2023-05-21T12:52:02.921Z,43.26
2023-05-21T12:54:32.942Z,38.71
2023-05-21T12:57:06.049Z,41.37
2023-05-21T12:59:43.822Z,40.09
2023-05-21T13:02:14.399Z,40.48
2023-05-21T13:04:40.769Z,41.44
2023-05-21T13:07:07.134Z,42.62
2023-05-21T13:09:34.116Z,43.39
2023-05-21T13:12:00.444Z,38.82
2023-05-21T13:14:26.758Z,41.92
2023-05-21T13:16:53.122Z,38.27
2023-05-21T13:19:19.523Z,39.85
2023-05-21T13:21:45.931Z,40.71
2023-05-21T13:24:12.296Z,40.49
2023-05-21T13:26:39.309Z,43.88
2023-05-21T13:29:05.714Z,41.92
2023-05-21T13:31:32.033Z,40.01
2023-05-21T13:33:58.326Z,43.04
2023-05-21T13:36:24.728Z,47.67
2023-05-21T13:38:51.037Z,42.66
2023-05-21T13:41:17.391Z,38.60
2023-05-21T13:43:44.395Z,42.30
2023-05-21T13:46:10.795Z,41.59
2023-05-21T13:48:37.143Z,43.86
2023-05-21T13:51:03.542Z,42.77
2023-05-21T13:53:29.881Z,44.12
2023-05-21T13:55:56.297Z,45.53
2023-05-21T13:58:22.606Z,46.22
2023-05-21T14:00:49.749Z,43.91
2023-05-21T14:03:16.215Z,46.51
2023-05-21T14:05:42.530Z,44.21
2023-05-21T14:08:08.957Z,44.74
2023-05-21T14:10:35.859Z,43.14
2023-05-21T14:13:11.978Z,42.59
2023-05-21T14:15:45.328Z,43.47
2023-05-21T14:18:12.431Z,43.80
2023-05-21T14:20:38.876Z,44.99
2023-05-21T14:23:08.684Z,49.23
2023-05-21T14:25:35.252Z,49.36
2023-05-21T14:28:04.860Z,45.17
2023-05-21T14:30:31.258Z,49.65
2023-05-21T14:32:58.041Z,53.89
2023-05-21T14:35:25.283Z,50.29
2023-05-21T14:37:52.751Z,47.16
2023-05-21T14:40:19.163Z,45.99
2023-05-21T14:42:45.523Z,45.27
2023-05-21T14:45:19.207Z,44.46
2023-05-21T14:47:47.213Z,43.32
2023-05-21T14:50:14.723Z,46.05
2023-05-21T14:52:42.473Z,45.54
2023-05-21T14:55:09.429Z,43.04
2023-05-21T14:57:35.794Z,43.46
2023-05-21T15:00:02.190Z,43.11
2023-05-21T15:02:28.731Z,47.93
2023-05-21T15:04:55.666Z,46.66
2023-05-21T15:07:22.044Z,48.58
2023-05-21T15:09:49.057Z,47.39
2023-05-21T15:12:15.369Z,50.65
2023-05-21T15:14:41.771Z,51.50
2023-05-21T15:17:11.111Z,44.44
2023-05-21T15:19:37.471Z,43.74
2023-05-21T15:22:03.987Z,47.74
2023-05-21T15:24:30.365Z,48.56
2023-05-21T15:26:57.371Z,44.90
2023-05-21T15:29:23.860Z,46.19
2023-05-21T15:31:50.225Z,45.38
2023-05-21T15:34:17.315Z,43.97
2023-05-21T15:36:43.649Z,44.80
2023-05-21T15:39:10.061Z,50.75
2023-05-21T15:41:37.050Z,45.11
2023-05-21T15:44:04.775Z,46.23
2023-05-21T15:46:34.242Z,44.82
2023-05-21T15:49:00.629Z,45.36
2023-05-21T15:51:26.970Z,45.42
2023-05-21T15:53:53.303Z,44.58
2023-05-21T15:56:21.055Z,46.17
2023-05-21T15:58:50.421Z,46.92
2023-05-21T16:01:17.987Z,48.80
2023-05-21T16:03:44.485Z,49.76
2023-05-21T16:06:10.864Z,50.38
2023-05-21T16:08:37.247Z,48.34
2023-05-21T16:11:03.696Z,48.98
2023-05-21T16:13:30.266Z,49.49
2023-05-21T16:15:56.560Z,51.58
2023-05-21T16:18:26.388Z,52.81
2023-05-21T16:20:54.537Z,47.45
2023-05-21T16:23:20.995Z,52.05
2023-05-21T16:25:47.517Z,49.87
2023-05-21T16:28:13.898Z,51.03
2023-05-21T16:30:40.409Z,47.21
2023-05-21T16:33:07.043Z,46.56
2023-05-21T16:35:34.099Z,49.66
2023-05-21T16:38:02.377Z,50.43
2023-05-21T16:40:30.682Z,48.84
2023-05-21T16:42:57.125Z,50.75
2023-05-21T16:45:23.590Z,51.71
2023-05-21T16:47:50.840Z,50.11
2023-05-21T16:50:17.678Z,53.59
2023-05-21T16:52:44.958Z,56.41
2023-05-21T16:55:11.520Z,56.09
2023-05-21T16:57:37.890Z,54.86
2023-05-21T17:00:06.993Z,55.02
2023-05-21T17:02:33.639Z,53.08
2023-05-21T17:04:59.989Z,55.38
2023-05-21T17:07:26.354Z,54.60
2023-05-21T17:09:53.428Z,49.94
2023-05-21T17:12:19.850Z,48.75
2023-05-21T17:14:46.235Z,47.23
2023-05-21T17:17:12.680Z,46.65
2023-05-21T17:19:39.072Z,49.76
2023-05-21T17:22:05.682Z,49.81
2023-05-21T17:24:32.059Z,52.12
2023-05-21T17:26:59.132Z,53.32
2023-05-21T17:29:25.699Z,56.17
2023-05-21T17:31:52.166Z,56.05
2023-05-21T17:34:18.649Z,56.14
2023-05-21T17:36:45.257Z,59.76
2023-05-21T17:39:11.607Z,61.75
2023-05-21T17:41:38.045Z,60.71
2023-05-21T17:44:05.208Z,63.47
2023-05-21T17:46:31.746Z,61.00
2023-05-21T17:48:58.199Z,62.34
2023-05-21T17:51:24.664Z,66.14
2023-05-21T17:53:51.017Z,67.19
2023-05-21T17:56:17.363Z,69.95
2023-05-21T17:58:43.745Z,69.30
2023-05-21T18:01:10.853Z,74.45
2023-05-21T18:03:37.249Z,78.04
2023-05-21T18:06:04.271Z,79.66
2023-05-21T18:08:30.684Z,85.37
2023-05-21T18:10:57.563Z,88.45
2023-05-21T18:13:23.900Z,84.51
2023-05-21T18:15:50.395Z,91.05
2023-05-21T18:18:19.852Z,97.05
2023-05-21T18:20:48.172Z,100.00
2023-05-21T18:23:14.617Z,100.00
2023-05-21T18:25:41.026Z,100.00
2023-05-21T18:28:08.232Z,100.00
2023-05-21T18:30:35.207Z,100.00
2023-05-21T18:33:02.107Z,100.00
2023-05-21T18:35:30.315Z,100.00
2023-05-21T18:37:57.282Z,100.00
2023-05-21T18:40:27.965Z,100.00
2023-05-21T18:42:57.732Z,100.00
2023-05-21T18:45:24.309Z,100.00
2023-05-21T18:47:51.077Z,100.00
2023-05-21T18:50:18.865Z,100.00
2023-05-21T18:52:46.173Z,100.00
2023-05-21T18:55:13.512Z,100.00
2023-05-21T18:57:40.138Z,100.00
2023-05-21T19:00:08.720Z,100.00
2023-05-21T19:02:35.430Z,100.00
2023-05-21T19:05:02.224Z,100.00
2023-05-21T19:07:28.700Z,100.00
2023-05-21T19:09:55.963Z,100.00
2023-05-21T19:12:22.457Z,100.00
2023-05-21T19:14:48.858Z,100.00
2023-05-21T19:17:15.330Z,100.00
2023-05-21T19:19:44.860Z,100.00
2023-05-21T19:22:11.258Z,100.00
2023-05-21T19:24:37.840Z,100.00
2023-05-21T19:27:05.764Z,100.00
2023-05-21T19:29:32.321Z,100.00
2023-05-21T19:31:58.764Z,100.00
2023-05-21T19:34:26.082Z,100.00
2023-05-21T19:36:53.697Z,100.00
2023-05-21T19:39:20.448Z,100.00
2023-05-21T19:41:46.904Z,100.00
2023-05-21T19:44:14.100Z,100.00
2023-05-21T19:46:40.635Z,100.00
2023-05-21T19:49:09.697Z,100.00
2023-05-21T19:51:36.245Z,100.00
2023-05-21T19:54:02.684Z,100.00
2023-05-21T19:56:29.098Z,100.00
2023-05-21T19:58:55.487Z,100.00
2023-05-21T20:01:22.775Z,100.00
2023-05-21T20:03:49.345Z,100.00
2023-05-21T20:06:18.072Z,100.00
2023-05-21T20:08:44.566Z,100.00
2023-05-21T20:11:10.994Z,100.00
2023-05-21T20:13:37.421Z,100.00
2023-05-21T20:16:04.400Z,100.00
2023-05-21T20:18:31.536Z,100.00
2023-05-21T20:20:57.953Z,100.00
2023-05-21T20:23:24.464Z,100.00
2023-05-21T20:25:50.953Z,100.00
2023-05-21T20:28:17.889Z,100.00
2023-05-21T20:30:56.796Z,100.00
2023-05-21T20:33:24.556Z,100.00
2023-05-21T20:35:58.790Z,100.00
2023-05-21T20:38:25.439Z,100.00
2023-05-21T20:40:52.266Z,100.00
2023-05-21T20:43:19.248Z,100.00
2023-05-21T20:45:46.721Z,100.00
2023-05-21T20:48:14.511Z,100.00
2023-05-21T20:50:41.422Z,100.00
2023-05-21T20:53:08.612Z,100.00
2023-05-21T20:55:35.122Z,100.00
2023-05-21T20:58:02.032Z,100.00
2023-05-21T21:00:28.536Z,100.00
2023-05-21T21:02:55.538Z,100.00
2023-05-21T21:05:23.587Z,100.00
2023-05-21T21:07:49.980Z,100.00
2023-05-21T21:10:17.378Z,100.00
2023-05-21T21:12:43.879Z,100.00
2023-05-21T21:15:10.392Z,100.00
2023-05-21T21:17:36.874Z,100.00
2023-05-21T21:20:05.307Z,100.00
2023-05-21T21:22:31.713Z,100.00
2023-05-21T21:24:58.291Z,100.00
2023-05-21T21:27:25.294Z,100.00
2023-05-21T21:29:51.760Z,100.00
2023-05-21T21:32:18.273Z,100.00
2023-05-21T21:34:44.816Z,100.00
2023-05-21T21:37:11.674Z,100.00
2023-05-21T21:39:38.289Z,100.00
2023-05-21T21:42:05.452Z,100.00
2023-05-21T21:44:32.527Z,100.00
2023-05-21T21:46:58.979Z,100.00
2023-05-21T21:49:25.375Z,100.00
2023-05-21T21:51:57.226Z,100.00
2023-05-21T21:54:23.722Z,100.00
2023-05-21T21:56:50.454Z,100.00
2023-05-21T21:59:16.839Z,100.00
2023-05-21T22:01:44.188Z,100.00
2023-05-21T22:04:10.686Z,100.00
2023-05-21T22:06:38.266Z,100.00
2023-05-21T22:09:04.914Z,100.00
2023-05-21T22:11:31.480Z,100.00
2023-05-21T22:13:59.638Z,100.00
2023-05-21T22:16:27.525Z,100.00
2023-05-21T22:18:54.749Z,100.00
2023-05-21T22:21:26.200Z,100.00
2023-05-21T22:23:58.020Z,100.00
2023-05-21T22:26:24.434Z,100.00
2023-05-21T22:28:50.835Z,100.00
2023-05-21T22:31:17.453Z,100.00
2023-05-21T22:33:43.995Z,100.00
2023-05-21T22:36:11.125Z,100.00
2023-05-21T22:38:37.607Z,100.00
2023-05-21T22:41:04.139Z,100.00
2023-05-21T22:43:30.587Z,100.00
2023-05-21T22:45:56.964Z,100.00
2023-05-21T22:48:26.110Z,100.00
2023-05-21T22:50:53.734Z,100.00
2023-05-21T22:57:51.437Z,100.00
2023-05-21T23:00:18.645Z,100.00
2023-05-21T23:02:45.332Z,100.00
2023-05-21T23:05:11.792Z,100.00
2023-05-21T23:07:38.258Z,100.00
2023-05-21T23:10:05.419Z,100.00
2023-05-21T23:12:31.764Z,100.00
2023-05-21T23:14:58.767Z,100.00
2023-05-21T23:17:25.202Z,100.00
2023-05-21T23:19:52.002Z,100.00
2023-05-21T23:22:25.877Z,100.00
2023-05-21T23:24:53.401Z,100.00
2023-05-21T23:27:19.977Z,100.00
2023-05-21T23:29:46.350Z,100.00
2023-05-21T23:32:13.466Z,100.00
2023-05-21T23:34:39.812Z,100.00
2023-05-21T23:37:06.560Z,100.00
2023-05-21T23:39:32.936Z,100.00
2023-05-21T23:41:59.303Z,100.00
2023-05-21T23:44:25.766Z,100.00
2023-05-21T23:46:52.167Z,100.00
2023-05-21T23:49:19.160Z,100.00
2023-05-21T23:51:45.974Z,100.00
2023-05-21T23:54:12.358Z,100.00
2023-05-21T23:56:38.696Z,100.00
2023-05-21T23:59:05.069Z,100.00
